createdAt,value
2023-01-07T00:01:37.904Z,-12.30
2023-01-07T00:04:10.577Z,-12.30
2023-01-07T00:06:40.421Z,-12.30
2023-01-07T00:09:11.499Z,-12.30
2023-01-07T00:11:40.029Z,-12.20
2023-01-07T00:14:12.988Z,-12.20
2023-01-07T00:16:41.028Z,-12.30
2023-01-07T00:19:14.218Z,-12.30
2023-01-07T00:21:42.148Z,-12.40
2023-01-07T00:24:11.358Z,-12.40
2023-01-07T00:26:42.322Z,-12.40
2023-01-07T00:29:19.857Z,-12.40
2023-01-07T00:31:49.649Z,-12.40
2023-01-07T00:34:16.926Z,-12.40
2023-01-07T00:36:49.145Z,-12.40
2023-01-07T00:39:23.173Z,-12.30
2023-01-07T00:42:09.305Z,-12.30
2023-01-07T00:44:38.040Z,-12.30
2023-01-07T00:47:08.530Z,-12.20
2023-01-07T00:49:35.884Z,-12.20
2023-01-07T00:52:03.253Z,-12.30
2023-01-07T00:54:31.060Z,-12.30
2023-01-07T00:56:58.342Z,-12.30
2023-01-07T00:59:28.503Z,-12.20
2023-01-07T01:01:55.876Z,-12.30
2023-01-07T01:04:23.566Z,-12.30
2023-01-07T01:07:00.092Z,-12.40
2023-01-07T01:09:30.479Z,-12.40
2023-01-07T01:11:57.634Z,-12.40
2023-01-07T01:14:29.001Z,-12.40
2023-01-07T01:16:56.265Z,-12.50
2023-01-07T01:19:23.748Z,-12.40
2023-01-07T01:21:51.041Z,-12.40
2023-01-07T01:24:18.979Z,-12.40
2023-01-07T01:26:46.265Z,-12.40
2023-01-07T01:29:19.576Z,-12.40
2023-01-07T01:31:46.807Z,-12.50
2023-01-07T01:34:14.884Z,-12.50
2023-01-07T01:36:45.179Z,-12.50
2023-01-07T01:39:13.908Z,-12.40
2023-01-07T01:41:41.547Z,-12.50
2023-01-07T01:44:52.955Z,-12.50
2023-01-07T01:47:54.177Z,-12.50
2023-01-07T01:50:24.269Z,-12.60
2023-01-07T01:52:58.285Z,-12.50
2023-01-07T01:55:40.630Z,-12.50
2023-01-07T01:58:13.255Z,-12.60
2023-01-07T02:00:47.067Z,-12.50
2023-01-07T02:03:20.520Z,-12.40
2023-01-07T02:05:49.043Z,-12.40
2023-01-07T02:08:22.178Z,-12.40
2023-01-07T02:11:08.416Z,-12.30
2023-01-07T02:14:16.003Z,-12.30
2023-01-07T02:17:18.828Z,-12.30
2023-01-07T02:20:08.797Z,-12.20
2023-01-07T02:23:06.108Z,-12.20
2023-01-07T02:26:10.977Z,-12.30
2023-01-07T02:29:14.885Z,-12.10
2023-01-07T02:32:22.780Z,-12.10
2023-01-07T02:35:08.392Z,-12.10
2023-01-07T02:38:07.799Z,-12.10
2023-01-07T02:40:56.835Z,-12.10
2023-01-07T02:43:46.865Z,-11.90
2023-01-07T02:46:39.007Z,-12.00
2023-01-07T02:49:13.096Z,-12.00
2023-01-07T02:51:43.765Z,-12.10
2023-01-07T02:54:21.652Z,-12.00
2023-01-07T02:57:03.356Z,-12.00
2023-01-07T02:59:42.277Z,-12.00
2023-01-07T03:02:15.572Z,-12.00
2023-01-07T03:04:57.993Z,-11.90
2023-01-07T03:07:49.033Z,-12.00
2023-01-07T03:10:32.698Z,-12.00
2023-01-07T03:13:16.230Z,-12.10
2023-01-07T03:15:55.623Z,-12.00
2023-01-07T03:18:39.417Z,-12.10
2023-01-07T03:21:14.563Z,-12.10
2023-01-07T03:23:47.325Z,-12.10
2023-01-07T03:26:16.961Z,-12.20
2023-01-07T03:28:44.666Z,-12.20
2023-01-07T03:31:15.921Z,-12.10
2023-01-07T03:33:54.987Z,-12.10
2023-01-07T03:36:33.161Z,-12.10
2023-01-07T03:39:00.757Z,-12.10
2023-01-07T03:41:46.934Z,-12.10
2023-01-07T03:44:15.869Z,-12.20
2023-01-07T03:46:43.909Z,-12.10
2023-01-07T03:49:15.306Z,-12.10
2023-01-07T03:51:42.664Z,-12.10
2023-01-07T03:54:12.251Z,-12.00
2023-01-07T03:56:39.419Z,-12.00
2023-01-07T03:59:07.285Z,-12.00
2023-01-07T04:01:35.724Z,-11.90
2023-01-07T04:04:03.557Z,-12.00
2023-01-07T04:06:34.531Z,-12.00
2023-01-07T04:09:02.213Z,-12.00
2023-01-07T04:11:29.943Z,-12.10
2023-01-07T04:14:03.606Z,-12.00
2023-01-07T04:16:33.915Z,-12.00
2023-01-07T04:19:03.598Z,-12.00
2023-01-07T04:21:30.793Z,-12.10
2023-01-07T04:23:58.249Z,-12.20
2023-01-07T04:26:25.996Z,-12.20
2023-01-07T04:28:53.214Z,-12.20
2023-01-07T04:31:20.702Z,-12.20
2023-01-07T04:33:51.562Z,-12.20
2023-01-07T04:36:21.893Z,-12.20
2023-01-07T04:38:49.202Z,-12.20
2023-01-07T04:41:16.601Z,-12.10
2023-01-07T04:43:47.114Z,-12.10
2023-01-07T04:46:17.713Z,-12.20
2023-01-07T04:48:44.874Z,-12.10
2023-01-07T04:51:13.811Z,-12.10
2023-01-07T04:53:41.020Z,-12.00
2023-01-07T04:56:08.549Z,-12.00
2023-01-07T04:58:35.657Z,-12.00
2023-01-07T05:01:03.865Z,-12.00
2023-01-07T05:03:31.757Z,-12.10
2023-01-07T05:05:59.305Z,-12.10
2023-01-07T05:08:26.713Z,-12.10
2023-01-07T05:10:54.113Z,-12.20
2023-01-07T05:13:23.419Z,-12.10
2023-01-07T05:15:51.436Z,-12.10
2023-01-07T05:18:19.003Z,-12.20
2023-01-07T05:20:48.416Z,-12.10
2023-01-07T05:23:21.024Z,-12.20
2023-01-07T05:25:48.212Z,-12.30
2023-01-07T05:28:15.507Z,-12.30
2023-01-07T05:30:42.886Z,-12.20
2023-01-07T05:33:13.582Z,-12.30
2023-01-07T05:35:40.718Z,-12.40
2023-01-07T05:38:08.014Z,-12.40
2023-01-07T05:40:35.165Z,-12.30
2023-01-07T05:43:04.773Z,-12.40
2023-01-07T05:45:32.462Z,-12.20
2023-01-07T05:47:59.686Z,-12.30
2023-01-07T05:50:27.082Z,-12.20
2023-01-07T05:52:55.671Z,-12.20
2023-01-07T05:55:25.661Z,-12.10
2023-01-07T05:57:54.607Z,-12.10
2023-01-07T06:00:21.800Z,-12.20
2023-01-07T06:02:54.924Z,-12.10
2023-01-07T06:05:22.806Z,-12.10
2023-01-07T06:07:51.158Z,-12.00
2023-01-07T06:10:18.443Z,-12.00
2023-01-07T06:12:51.467Z,-12.00
2023-01-07T06:15:19.409Z,-12.00
2023-01-07T06:17:46.642Z,-12.00
2023-01-07T06:20:15.268Z,-12.10
2023-01-07T06:22:43.766Z,-11.90
2023-01-07T06:25:12.110Z,-12.00
2023-01-07T06:27:42.408Z,-12.00
2023-01-07T06:30:11.558Z,-12.10
2023-01-07T06:32:43.714Z,-12.00
2023-01-07T06:35:18.787Z,-12.10
2023-01-07T06:37:46.469Z,-12.00
2023-01-07T06:40:14.072Z,-12.00
2023-01-07T06:42:41.254Z,-12.00
2023-01-07T06:45:09.840Z,-11.90
2023-01-07T06:47:40.251Z,-11.90
2023-01-07T06:50:07.773Z,-11.90
2023-01-07T06:52:35.281Z,-11.90
2023-01-07T06:55:09.087Z,-11.90
2023-01-07T06:57:39.202Z,-11.90
2023-01-07T07:00:07.278Z,-11.90
2023-01-07T07:02:34.872Z,-11.90
2023-01-07T07:05:02.964Z,-11.90
2023-01-07T07:07:34.405Z,-11.90
2023-01-07T07:12:57.197Z,-12.00
2023-01-07T07:15:30.610Z,-12.00
2023-01-07T07:17:58.092Z,-11.90
2023-01-07T07:20:26.493Z,-11.90
2023-01-07T07:23:00.900Z,-11.90
2023-01-07T07:25:31.290Z,-11.90
2023-01-07T07:27:58.333Z,-11.90
2023-01-07T07:30:45.921Z,-11.90
2023-01-07T07:33:19.654Z,-11.80
2023-01-07T07:35:49.948Z,-11.80
2023-01-07T07:38:18.627Z,-11.90
2023-01-07T07:40:48.573Z,-11.80
2023-01-07T07:43:16.741Z,-11.70
2023-01-07T07:45:47.304Z,-11.70
2023-01-07T07:48:18.922Z,-11.70
2023-01-07T07:50:54.543Z,-11.70
2023-01-07T07:53:24.316Z,-11.80
2023-01-07T07:55:53.320Z,-11.70
2023-01-07T07:58:23.297Z,-11.60
2023-01-07T08:00:50.828Z,-11.70
2023-01-07T08:03:20.344Z,-11.70
2023-01-07T08:05:50.511Z,-11.70
2023-01-07T08:11:05.009Z,-11.50
2023-01-07T08:13:32.377Z,-11.50
2023-01-07T08:16:04.250Z,-11.50
2023-01-07T08:18:36.862Z,-11.50
2023-01-07T08:21:04.664Z,-11.50
2023-01-07T08:23:36.671Z,-11.40
2023-01-07T08:26:10.331Z,-11.40
2023-01-07T08:28:40.212Z,-11.40
2023-01-07T08:31:08.793Z,-11.30
2023-01-07T08:33:40.286Z,-11.30
2023-01-07T08:36:22.149Z,-11.30
2023-01-07T08:38:59.479Z,-11.30
2023-01-07T08:41:32.033Z,-11.20
2023-01-07T08:44:12.932Z,-11.30
2023-01-07T08:46:46.970Z,-11.20
2023-01-07T08:49:16.986Z,-11.20
2023-01-07T08:51:48.628Z,-11.30
2023-01-07T08:54:18.545Z,-11.20
2023-01-07T08:56:50.554Z,-11.20
2023-01-07T08:59:17.590Z,-11.00
2023-01-07T09:01:45.345Z,-11.00
2023-01-07T09:04:13.497Z,-11.00
2023-01-07T09:06:40.946Z,-11.00
2023-01-07T09:09:19.888Z,-10.90
2023-01-07T09:11:47.293Z,-10.90
2023-01-07T09:14:14.945Z,-10.80
2023-01-07T09:16:43.781Z,-10.80
2023-01-07T09:19:22.559Z,-10.80
2023-01-07T09:21:52.319Z,-10.80
2023-01-07T09:24:20.499Z,-10.70
2023-01-07T09:26:48.086Z,-10.70
2023-01-07T09:29:16.020Z,-10.70
2023-01-07T09:31:43.684Z,-10.80
2023-01-07T09:34:14.159Z,-10.80
2023-01-07T09:36:41.542Z,-10.70
2023-01-07T09:39:12.117Z,-10.60
2023-01-07T09:41:59.637Z,-10.50
2023-01-07T09:44:46.015Z,-10.50
2023-01-07T09:47:17.257Z,-10.50
2023-01-07T09:49:51.171Z,-10.50
2023-01-07T09:52:32.853Z,-10.50
2023-01-07T09:55:17.237Z,-10.40
2023-01-07T09:57:44.558Z,-10.30
2023-01-07T10:00:55.989Z,-10.30
2023-01-07T10:03:58.420Z,-10.30
2023-01-07T10:06:43.865Z,-10.30
2023-01-07T10:09:43.620Z,-10.30
2023-01-07T10:12:34.582Z,-10.20
2023-01-07T10:15:41.136Z,-10.20
2023-01-07T10:19:00.647Z,-10.10
2023-01-07T10:21:45.500Z,-10.00
2023-01-07T10:24:22.172Z,-10.00
2023-01-07T10:26:56.515Z,-10.00
2023-01-07T10:29:26.679Z,-10.00
2023-01-07T10:31:57.064Z,-10.10
2023-01-07T10:34:39.004Z,-10.10
2023-01-07T10:37:34.622Z,-10.00
2023-01-07T10:40:32.541Z,-10.00
2023-01-07T10:43:41.630Z,-9.90
2023-01-07T10:49:52.328Z,-9.80
2023-01-07T10:52:40.828Z,-9.70
2023-01-07T10:55:11.306Z,-9.70
2023-01-07T10:57:41.203Z,-9.80
2023-01-07T11:00:14.779Z,-9.70
2023-01-07T11:02:46.420Z,-9.70
2023-01-07T11:05:14.961Z,-9.80
2023-01-07T11:07:52.814Z,-9.70
2023-01-07T11:10:25.972Z,-9.60
2023-01-07T11:12:56.975Z,-9.50
2023-01-07T11:15:46.154Z,-9.30
2023-01-07T11:18:28.969Z,-9.30
2023-01-07T11:21:00.832Z,-9.20
2023-01-07T11:23:43.762Z,-9.10
2023-01-07T11:26:27.614Z,-9.00
2023-01-07T11:29:15.851Z,-9.00
2023-01-07T11:31:48.873Z,-9.00
2023-01-07T11:34:25.785Z,-9.00
2023-01-07T11:36:53.048Z,-9.10
2023-01-07T11:39:34.924Z,-9.30
2023-01-07T11:42:40.167Z,-9.30
2023-01-07T11:45:13.364Z,-9.60
2023-01-07T11:47:53.425Z,-9.60
2023-01-07T11:50:35.291Z,-9.70
2023-01-07T11:53:16.397Z,-9.70
2023-01-07T11:55:57.310Z,-9.70
2023-01-07T11:58:28.460Z,-9.70
2023-01-07T12:01:09.078Z,-9.70
2023-01-07T12:04:01.908Z,-9.70
2023-01-07T12:06:41.098Z,-9.70
2023-01-07T12:09:31.019Z,-9.60
2023-01-07T12:12:06.538Z,-9.70
2023-01-07T12:14:51.822Z,-9.60
2023-01-07T12:17:28.531Z,-9.80
2023-01-07T12:20:26.190Z,-9.80
2023-01-07T12:22:58.878Z,-9.70
2023-01-07T12:25:43.215Z,-9.70
2023-01-07T12:28:21.021Z,-9.80
2023-01-07T12:31:11.931Z,-9.80
2023-01-07T12:34:05.209Z,-9.90
2023-01-07T12:36:51.787Z,-10.00
2023-01-07T12:39:33.138Z,-10.00
2023-01-07T12:42:10.143Z,-10.10
2023-01-07T12:44:44.853Z,-10.10
2023-01-07T12:47:32.640Z,-10.10
2023-01-07T12:50:16.446Z,-10.20
2023-01-07T12:52:48.144Z,-10.20
2023-01-07T12:55:45.303Z,-10.20
2023-01-07T12:58:45.397Z,-10.20
2023-01-07T13:01:37.269Z,-10.20
2023-01-07T13:04:27.952Z,-10.20
2023-01-07T13:07:22.923Z,-10.30
2023-01-07T13:10:19.266Z,-10.30
2023-01-07T13:12:52.569Z,-10.30
2023-01-07T13:15:28.857Z,-10.30
2023-01-07T13:18:12.888Z,-10.40
2023-01-07T13:20:58.939Z,-10.40
2023-01-07T13:23:43.789Z,-10.40
2023-01-07T13:26:32.927Z,-10.40
2023-01-07T13:29:24.753Z,-10.50
2023-01-07T13:32:12.723Z,-10.50
2023-01-07T13:34:52.925Z,-10.40
2023-01-07T13:37:31.812Z,-10.50
2023-01-07T13:40:11.252Z,-10.40
2023-01-07T13:43:09.178Z,-10.50
2023-01-07T13:45:37.317Z,-10.40
2023-01-07T13:48:16.576Z,-10.40
2023-01-07T13:51:03.054Z,-10.30
2023-01-07T13:53:38.615Z,-10.30
2023-01-07T13:56:20.362Z,-10.40
2023-01-07T13:58:56.332Z,-10.30
2023-01-07T14:01:35.727Z,-10.40
2023-01-07T14:04:09.158Z,-10.40
2023-01-07T14:06:44.614Z,-10.50
2023-01-07T14:09:25.952Z,-10.50
2023-01-07T14:12:09.563Z,-10.50
2023-01-07T14:15:06.682Z,-10.50
2023-01-07T14:18:06.672Z,-10.50
2023-01-07T14:20:51.371Z,-10.50
2023-01-07T14:23:23.823Z,-10.50
2023-01-07T14:26:27.591Z,-10.50
2023-01-07T14:29:16.469Z,-10.50
2023-01-07T14:31:47.553Z,-10.50
2023-01-07T14:34:21.566Z,-10.40
2023-01-07T14:37:08.925Z,-10.40
2023-01-07T14:39:40.645Z,-10.30
2023-01-07T14:42:38.556Z,-10.30
2023-01-07T14:45:25.893Z,-10.20
2023-01-07T14:47:58.532Z,-10.20
2023-01-07T14:50:44.193Z,-10.10
2023-01-07T14:53:51.274Z,-10.10
2023-01-07T14:56:51.614Z,-10.10
2023-01-07T14:59:39.614Z,-10.10
2023-01-07T15:02:44.248Z,-10.00
2023-01-07T15:05:48.836Z,-9.90
2023-01-07T15:08:39.313Z,-10.00
2023-01-07T15:11:39.409Z,-9.80
2023-01-07T15:14:38.186Z,-9.80
2023-01-07T15:17:12.211Z,-9.70
2023-01-07T15:19:42.090Z,-9.60
2023-01-07T15:22:44.574Z,-9.60
2023-01-07T15:25:26.049Z,-9.40
2023-01-07T15:28:09.928Z,-9.50
2023-01-07T15:30:43.512Z,-9.40
2023-01-07T15:33:48.163Z,-9.30
2023-01-07T15:36:16.479Z,-9.30
2023-01-07T15:38:51.068Z,-9.20
2023-01-07T15:41:34.655Z,-9.30
2023-01-07T15:44:20.938Z,-9.20
2023-01-07T15:46:50.819Z,-9.30
2023-01-07T15:49:21.033Z,-9.20
2023-01-07T15:51:51.022Z,-9.20
2023-01-07T15:54:31.283Z,-9.20
2023-01-07T15:57:31.924Z,-9.10
2023-01-07T16:00:06.363Z,-9.20
2023-01-07T16:02:42.648Z,-9.20
2023-01-07T16:05:19.629Z,-9.20
2023-01-07T16:08:28.477Z,-9.20
2023-01-07T16:11:11.448Z,-9.10
2023-01-07T16:13:56.315Z,-9.10
2023-01-07T16:16:25.374Z,-9.10
2023-01-07T16:19:04.688Z,-9.10
2023-01-07T16:21:38.121Z,-9.10
2023-01-07T16:24:06.006Z,-9.20
2023-01-07T16:26:48.263Z,-9.20
2023-01-07T16:29:23.551Z,-9.10
2023-01-07T16:31:51.444Z,-9.10
2023-01-07T16:34:24.649Z,-9.10
2023-01-07T16:37:00.332Z,-9.10
2023-01-07T16:39:41.811Z,-9.00
2023-01-07T16:42:20.776Z,-9.00
2023-01-07T16:44:57.054Z,-9.00
2023-01-07T16:47:32.395Z,-9.00
2023-01-07T16:50:15.528Z,-9.10
2023-01-07T16:53:06.228Z,-9.10
2023-01-07T16:55:46.902Z,-9.10
2023-01-07T16:59:03.129Z,-9.00
2023-01-07T17:01:36.062Z,-9.10
2023-01-07T17:04:12.529Z,-9.10
2023-01-07T17:06:50.266Z,-9.00
2023-01-07T17:09:24.797Z,-9.00
2023-01-07T17:11:57.600Z,-9.00
2023-01-07T17:14:34.892Z,-9.10
2023-01-07T17:17:03.019Z,-9.00
2023-01-07T17:19:42.192Z,-8.90
2023-01-07T17:22:34.261Z,-8.90
2023-01-07T17:25:24.687Z,-9.00
2023-01-07T17:27:59.790Z,-9.00
2023-01-07T17:30:37.002Z,-9.00
2023-01-07T17:33:04.543Z,-8.90
2023-01-07T17:35:43.709Z,-8.90
2023-01-07T17:38:15.528Z,-9.00
2023-01-07T17:40:43.912Z,-9.00
2023-01-07T17:43:35.436Z,-9.00
2023-01-07T17:46:18.229Z,-8.90
2023-01-07T17:48:54.116Z,-8.90
2023-01-07T17:51:24.133Z,-8.80
2023-01-07T17:53:56.009Z,-8.80
2023-01-07T17:56:26.515Z,-8.80
2023-01-07T17:58:59.822Z,-8.70
2023-01-07T18:01:27.398Z,-8.70
2023-01-07T18:03:54.925Z,-8.80
2023-01-07T18:06:30.410Z,-8.70
2023-01-07T18:09:13.347Z,-8.70
2023-01-07T18:12:03.767Z,-8.70
2023-01-07T18:14:33.043Z,-8.80
2023-01-07T18:17:00.307Z,-8.70
2023-01-07T18:19:27.905Z,-8.70
2023-01-07T18:21:55.683Z,-8.80
2023-01-07T18:24:22.964Z,-8.70
2023-01-07T18:26:50.224Z,-8.80
2023-01-07T18:29:21.424Z,-8.80
2023-01-07T18:31:49.584Z,-8.80
2023-01-07T18:34:22.258Z,-8.70
2023-01-07T18:36:49.855Z,-8.70
2023-01-07T18:39:21.695Z,-8.70
2023-01-07T18:41:50.214Z,-8.60
2023-01-07T18:44:23.071Z,-8.60
2023-01-07T18:46:53.967Z,-8.60
2023-01-07T18:49:29.637Z,-8.60
2023-01-07T18:51:56.774Z,-8.60
2023-01-07T18:54:27.941Z,-8.60
2023-01-07T18:56:55.201Z,-8.60
2023-01-07T18:59:24.278Z,-8.60
2023-01-07T19:01:53.374Z,-8.60
2023-01-07T19:04:29.782Z,-8.60
2023-01-07T19:06:57.070Z,-8.60
2023-01-07T19:09:30.534Z,-8.50
2023-01-07T19:11:57.875Z,-8.70
2023-01-07T19:14:25.888Z,-8.60
2023-01-07T19:17:01.757Z,-8.70
2023-01-07T19:19:34.273Z,-8.60
2023-01-07T19:22:16.526Z,-8.70
2023-01-07T19:24:46.863Z,-8.70
2023-01-07T19:27:14.336Z,-8.50
2023-01-07T19:29:41.663Z,-8.50
2023-01-07T19:32:09.201Z,-8.60
2023-01-07T19:34:38.645Z,-8.60
2023-01-07T19:37:08.040Z,-8.50
2023-01-07T19:39:35.790Z,-8.50
2023-01-07T19:42:03.036Z,-8.60
2023-01-07T19:44:30.323Z,-8.50
2023-01-07T19:47:01.176Z,-8.50
2023-01-07T19:49:31.129Z,-8.40
2023-01-07T19:51:58.301Z,-8.40
2023-01-07T19:54:31.134Z,-8.40
2023-01-07T19:56:59.709Z,-8.30
2023-01-07T19:59:31.687Z,-8.40
2023-01-07T20:01:59.225Z,-8.40
2023-01-07T20:04:27.363Z,-8.40
2023-01-07T20:06:55.619Z,-8.40
2023-01-07T20:09:24.966Z,-8.30
2023-01-07T20:11:58.278Z,-8.30
2023-01-07T20:14:25.395Z,-8.40
2023-01-07T20:16:52.653Z,-8.40
2023-01-07T20:19:23.513Z,-8.40
2023-01-07T20:21:53.858Z,-8.40
2023-01-07T20:24:21.723Z,-8.30
2023-01-07T20:26:54.910Z,-8.40
2023-01-07T20:29:28.840Z,-8.30
2023-01-07T20:31:56.264Z,-8.30
2023-01-07T20:34:23.834Z,-8.30
2023-01-07T20:36:54.006Z,-8.30
2023-01-07T20:39:23.204Z,-8.30
2023-01-07T20:41:50.455Z,-8.40
2023-01-07T20:44:18.821Z,-8.30
2023-01-07T20:46:46.619Z,-8.40
2023-01-07T20:49:17.611Z,-8.40
2023-01-07T20:51:44.783Z,-8.40
2023-01-07T20:54:13.794Z,-8.40
2023-01-07T20:56:45.468Z,-8.30
2023-01-07T20:59:17.869Z,-8.20
2023-01-07T21:01:47.386Z,-8.30
2023-01-07T21:04:24.787Z,-8.20
2023-01-07T21:06:56.099Z,-8.30
2023-01-07T21:09:23.599Z,-8.20
2023-01-07T21:11:50.995Z,-8.30
2023-01-07T21:14:21.183Z,-8.30
2023-01-07T21:16:50.301Z,-8.30
2023-01-07T21:19:18.166Z,-8.30
2023-01-07T21:21:45.476Z,-8.30
2023-01-07T21:24:15.046Z,-8.30
2023-01-07T21:26:42.087Z,-8.30
2023-01-07T21:29:09.800Z,-8.20
2023-01-07T21:31:39.738Z,-8.30
2023-01-07T21:34:09.757Z,-8.20
2023-01-07T21:36:40.148Z,-8.10
2023-01-07T21:39:11.532Z,-8.20
2023-01-07T21:41:40.399Z,-8.20
2023-01-07T21:44:13.115Z,-8.20
2023-01-07T21:46:40.997Z,-8.10
2023-01-07T21:49:16.163Z,-8.20
2023-01-07T21:51:43.321Z,-8.10
2023-01-07T21:54:10.634Z,-8.30
2023-01-07T21:56:37.890Z,-8.10
2023-01-07T21:59:08.493Z,-8.10
2023-01-07T22:01:37.174Z,-8.10
2023-01-07T22:04:04.906Z,-8.20
2023-01-07T22:06:37.629Z,-8.00
2023-01-07T22:09:08.303Z,-8.10
2023-01-07T22:11:38.671Z,-8.00
2023-01-07T22:14:17.633Z,-8.00
2023-01-07T22:16:48.826Z,-8.00
2023-01-07T22:19:17.601Z,-8.00
2023-01-07T22:21:45.914Z,-8.10
2023-01-07T22:24:15.801Z,-8.20
2023-01-07T22:26:43.545Z,-8.00
2023-01-07T22:29:14.277Z,-8.00
2023-01-07T22:31:52.167Z,-8.10
2023-01-07T22:34:20.414Z,-8.00
2023-01-07T22:36:56.375Z,-7.90
2023-01-07T22:39:33.328Z,-7.90
2023-01-07T22:42:10.042Z,-7.80
2023-01-07T22:44:44.339Z,-7.70
2023-01-07T22:47:18.058Z,-7.80
2023-01-07T22:49:46.596Z,-7.80
2023-01-07T22:52:19.734Z,-7.80
2023-01-07T22:54:51.945Z,-7.90
2023-01-07T22:57:23.816Z,-7.80
2023-01-07T22:59:54.293Z,-7.90
2023-01-07T23:02:23.677Z,-7.90
2023-01-07T23:04:51.241Z,-7.90
2023-01-07T23:07:23.274Z,-7.80
2023-01-07T23:09:51.651Z,-7.90
2023-01-07T23:12:26.319Z,-7.80
2023-01-07T23:14:55.878Z,-7.80
2023-01-07T23:17:23.191Z,-7.80
2023-01-07T23:19:51.666Z,-7.80
2023-01-07T23:22:18.990Z,-7.80
2023-01-07T23:24:46.625Z,-7.80
2023-01-07T23:27:14.260Z,-7.70
2023-01-07T23:29:47.634Z,-7.60
2023-01-07T23:32:21.424Z,-7.70
2023-01-07T23:34:51.035Z,-7.70
2023-01-07T23:37:19.754Z,-7.70
2023-01-07T23:39:50.419Z,-7.60
2023-01-07T23:42:17.471Z,-7.60
2023-01-07T23:44:44.779Z,-7.60
2023-01-07T23:47:12.023Z,-7.50
2023-01-07T23:49:46.580Z,-7.50
2023-01-07T23:52:19.360Z,-7.50
2023-01-07T23:54:46.554Z,-7.50
2023-01-07T23:57:16.679Z,-7.60
2023-01-07T23:59:43.938Z,-7.60
